Aviation Digital Data Service (ADDS)

Output produced by METARs form (1223 UTC 24 May 2022)
found at http://www.aviationweather.gov/metar/data/
 
METAR text: RJTT 241200Z 18010KT 9999 FEW015 21/18 Q1015 NOSIG RMK 1CU015 A3000
Conditions at: RJTT (TOKYO INTL AIRPO, JP) observed 1200 UTC 24 May 2022
Temperature: 21.0°C (70°F)
Dewpoint: 18.0°C (64°F) [RH = 83%]
Pressure (altimeter): 29.97 inches Hg (1015.0 mb)
Winds: from the S (180 degrees) at 12 MPH (10 knots; 5.1 m/s)
Visibility: 6 or more miles (10+ km)
Ceiling: at least 12,000 feet AGL
Clouds: few clouds at 1500 feet AGL
Weather: no significant weather observed at this time

Forecast for: RJTT (TOKYO INTL AIRPO, JP)
Text: TAF RJTT 241105Z 2412/2518 19010KT 9999 FEW020
Forecast period: 1200 UTC 24 May 2022 to 1800 UTC 25 May 2022
Forecast type: FROM: standard forecast or significant change
Winds: from the S (190 degrees) at 12 MPH (10 knots; 5.1 m/s)
Visibility: 6 or more miles (10+ km)
Ceiling: at least 12,000 feet AGL
Clouds: few clouds at 2000 feet AGL
Weather: no significant weather forecast for this period